Time;durP1;ratioP1;P1;durP2;ratioP2;P2;SDS_P1;SDS_P2;PMS_P1;PMS_P2;Temp;Humidity;BMP_temperature;BMP_pressure;BME280_temperature;BME280_humidity;BME280_pressure;Samples;Min_cycle;Max_cycle;Signal;HPM_P1;HPM_P2
2023/04/02 13:24:19;;;;;;;;;18.50;14.00;;;;;10.46;64.42;101895.44;6262079;22;45793;-70
2023/04/02 13:26:46;;;;;;;;;25.25;21.25;;;;;10.44;65.35;101905.03;6275524;22;45253;-70
2023/04/02 13:29:17;;;;;;;;;21.25;21.25;;;;;10.44;65.17;101905.91;6276896;22;45310;-70
2023/04/02 13:31:43;;;;;;;;;22.75;16.75;;;;;10.50;64.24;101905.28;6274389;22;47129;-70
2023/04/02 13:34:08;;;;;;;;;16.75;15.00;;;;;10.46;64.67;101901.63;6276727;22;45303;-69
2023/04/02 13:36:33;;;;;;;;;16.50;13.75;;;;;10.32;65.50;101870.16;6275018;22;45184;-70
2023/04/02 13:38:59;;;;;;;;;16.75;16.25;;;;;10.51;64.35;101908.00;6276331;22;45350;-70
2023/04/02 13:41:29;;;;;;;;;26.25;21.50;;;;;10.60;64.92;101920.69;6276900;22;45294;-71
2023/04/02 13:43:59;;;;;;;;;16.75;13.25;;;;;10.57;64.32;101911.75;6275760;22;45294;-71
2023/04/02 13:46:27;;;;;;;;;15.00;10.25;;;;;10.59;63.79;101931.22;6274696;22;45277;-70
2023/04/02 13:48:54;;;;;;;;;21.25;20.50;;;;;10.58;64.15;101929.41;6276318;22;45423;-70
2023/04/02 13:51:26;;;;;;;;;19.25;18.00;;;;;10.66;63.95;101938.56;6276971;22;45362;-70
2023/04/02 13:53:56;;;;;;;;;14.50;13.00;;;;;10.66;63.27;101928.88;6276416;22;45369;-70
2023/04/02 13:56:23;;;;;;;;;25.50;23.75;;;;;10.65;63.41;101939.41;6274297;22;45193;-70
2023/04/02 13:58:50;;;;;;;;;17.50;14.75;;;;;10.56;63.59;101928.44;6275902;22;45208;-71
2023/04/02 14:01:17;;;;;;;;;56.00;46.50;;;;;10.57;63.43;101936.44;6274935;22;45134;-71
2023/04/02 14:03:44;;;;;;;;;18.75;16.75;;;;;10.56;63.86;101932.00;6276599;22;45282;-70
2023/04/02 14:06:26;;;;;;;;;15.50;12.50;;;;;10.69;64.10;101950.16;6277469;22;45276;-71
2023/04/02 14:08:55;;;;;;;;;14.75;14.00;;;;;10.71;63.82;101947.59;6274094;22;46449;-71
2023/04/02 14:11:26;;;;;;;;;16.00;14.75;;;;;10.69;62.76;101954.56;6277924;22;46185;-71
2023/04/02 14:14:16;;;;;;;;;12.50;11.75;;;;;10.69;63.30;101955.47;6277043;22;45309;-71
2023/04/02 14:16:57;;;;;;;;;13.50;11.75;;;;;10.66;63.09;101957.06;6277503;22;45151;-71
2023/04/02 14:19:41;;;;;;;;;17.50;12.25;;;;;10.65;63.35;101958.81;6277742;22;45228;-70
2023/04/02 14:22:21;;;;;;;;;19.50;18.25;;;;;10.65;63.69;101963.22;6274913;22;46257;-70
2023/04/02 14:25:08;;;;;;;;;18.00;13.00;;;;;10.61;63.74;101956.88;6276092;22;45440;-70
2023/04/02 14:27:50;;;;;;;;;15.25;13.25;;;;;10.49;63.08;101957.25;6277069;22;45436;-70
2023/04/02 14:30:31;;;;;;;;;23.25;16.00;;;;;10.48;63.61;101955.47;6277206;22;45166;-70
2023/04/02 14:33:21;;;;;;;;;17.50;14.75;;;;;10.44;63.26;101963.19;6274235;22;46600;-70
2023/04/02 14:35:56;;;;;;;;;20.25;15.25;;;;;10.36;63.31;101964.59;6276810;22;45221;-72
2023/04/02 14:38:33;;;;;;;;;15.25;13.25;;;;;10.37;63.67;101977.88;6275991;22;45303;-70
2023/04/02 14:41:23;;;;;;;;;18.50;15.75;;;;;10.25;64.33;101969.34;6276417;22;45244;-70
2023/04/02 14:43:55;;;;;;;;;15.25;14.00;;;;;10.29;63.83;101972.25;6274246;22;47270;-70
2023/04/02 14:46:25;;;;;;;;;20.75;17.50;;;;;10.25;63.56;101978.22;6276779;22;45203;-70
2023/04/02 14:49:00;;;;;;;;;21.50;12.75;;;;;10.33;63.43;101988.22;6274797;22;45229;-70
2023/04/02 14:51:37;;;;;;;;;14.25;13.25;;;;;10.25;63.16;101987.84;6274450;22;45849;-69
2023/04/02 14:54:16;;;;;;;;;13.75;12.75;;;;;10.28;62.94;102001.25;6275787;22;46171;-69
2023/04/02 14:56:56;;;;;;;;;11.75;11.75;;;;;10.24;63.45;101991.34;6274242;22;45301;-69
2023/04/02 14:59:30;;;;;;;;;18.25;14.50;;;;;10.16;63.65;101991.00;6276173;22;45391;-70
2023/04/02 15:02:21;;;;;;;;;19.75;16.50;;;;;10.21;63.46;102002.66;6276035;22;45524;-70
2023/04/02 15:04:55;;;;;;;;;14.25;12.50;;;;;10.06;62.70;101980.84;6275586;22;45662;-70
2023/04/02 15:07:30;;;;;;;;;15.75;14.25;;;;;9.95;63.06;101979.47;6275373;22;45241;-70
2023/04/02 15:10:21;;;;;;;;;14.75;13.50;;;;;10.08;63.31;102003.88;6275691;22;45227;-69
2023/04/02 15:12:47;;;;;;;;;10.00;5.75;;;;;10.04;63.04;101998.38;6274623;22;45422;-69
2023/04/02 15:15:44;;;;;;;;;18.75;13.25;;;;;10.04;63.18;102009.84;6276360;22;46124;-69
2023/04/02 15:18:13;;;;;;;;;15.50;13.75;;;;;10.03;63.78;102002.75;6275059;22;45227;-69
2023/04/02 15:21:19;;;;;;;;;13.00;12.00;;;;;10.03;63.43;102002.75;6276019;22;45766;-69
2023/04/02 15:24:23;;;;;;;;;20.00;12.25;;;;;10.01;63.65;101988.56;6274650;22;45318;-70
2023/04/02 15:26:57;;;;;;;;;14.00;13.00;;;;;9.99;63.81;101998.16;6218077;22;45353;-69
2023/04/02 15:29:28;;;;;;;;;27.25;21.25;;;;;9.98;63.85;101996.34;6275696;22;45319;-69
2023/04/02 15:32:06;;;;;;;;;18.75;14.75;;;;;9.86;63.25;101991.41;6273064;22;45227;-69
2023/04/02 15:34:41;;;;;;;;;16.00;12.00;;;;;9.90;63.81;101995.09;6300623;22;45704;-69
2023/04/02 15:37:16;;;;;;;;;19.50;18.75;;;;;9.81;63.48;101990.28;6276670;22;45686;-69
2023/04/02 15:39:47;;;;;;;;;13.75;13.25;;;;;9.85;64.19;102008.06;6277277;22;45271;-69
2023/04/02 15:42:15;;;;;;;;;20.75;18.00;;;;;9.80;64.38;102016.59;6275945;22;45231;-69
2023/04/02 15:45:08;;;;;;;;;19.75;19.50;;;;;9.73;64.12;102017.16;6274540;22;45657;-69
2023/04/02 15:47:51;;;;;;;;;13.75;11.00;;;;;9.67;64.71;102020.44;6276878;22;45325;-69
2023/04/02 15:50:38;;;;;;;;;16.50;13.00;;;;;9.59;63.99;102019.16;6277345;22;45253;-69
2023/04/02 15:53:38;;;;;;;;;19.75;17.25;;;;;9.51;64.45;102023.16;6276363;22;45362;-69
2023/04/02 15:56:18;;;;;;;;;23.50;22.25;;;;;9.51;64.64;102020.50;6276393;22;45454;-69
2023/04/02 15:58:52;;;;;;;;;43.00;34.75;;;;;9.52;64.26;102025.88;6277233;22;46270;-69
2023/04/02 16:01:48;;;;;;;;;22.50;21.50;;;;;9.52;64.55;102032.88;6277499;22;45231;-72
2023/04/02 16:04:40;;;;;;;;;24.25;21.75;;;;;9.53;64.16;102032.97;6276444;22;45598;-70
2023/04/02 16:07:18;;;;;;;;;26.50;22.00;;;;;9.51;64.91;102029.34;6276695;22;45230;-70
2023/04/02 16:10:13;;;;;;;;;21.00;18.75;;;;;9.55;65.29;102041.88;6277157;22;45242;-69
2023/04/02 16:12:39;;;;;;;;;39.00;35.25;;;;;9.49;65.40;102033.63;6277174;22;45291;-71
2023/04/02 16:15:25;;;;;;;;;25.75;22.75;;;;;9.56;64.79;102051.59;6277465;22;45218;-71
2023/04/02 16:18:00;;;;;;;;;26.00;22.00;;;;;9.42;64.58;102042.09;6274554;22;45930;-71
2023/04/02 16:20:33;;;;;;;;;35.25;29.00;;;;;9.44;65.38;102065.91;6276930;22;45262;-71
2023/04/02 16:23:10;;;;;;;;;32.75;25.50;;;;;9.43;65.26;102074.66;6275538;22;45424;-71
2023/04/02 16:25:52;;;;;;;;;32.75;30.25;;;;;9.30;65.32;102066.16;6274120;22;45310;-69
2023/04/02 16:28:25;;;;;;;;;43.75;35.50;;;;;9.30;65.22;102081.03;6275966;22;45370;-69
2023/04/02 16:31:01;;;;;;;;;18.75;18.75;;;;;9.28;65.06;102074.81;6277238;22;45508;-70
2023/04/02 16:33:26;;;;;;;;;23.50;19.00;;;;;9.24;64.51;102072.84;6275238;22;45202;-70
2023/04/02 16:36:06;;;;;;;;;71.25;54.75;;;;;9.19;65.21;102085.81;6274878;22;45177;-70
2023/04/02 16:38:50;;;;;;;;;80.75;60.50;;;;;9.21;65.24;102088.50;6276429;22;45323;-72
2023/04/02 16:41:27;;;;;;;;;58.75;44.25;;;;;9.19;64.87;102091.09;6274573;22;46598;-70
2023/04/02 16:44:18;;;;;;;;;44.00;35.00;;;;;9.12;65.00;102084.56;6276288;22;45318;-70
2023/04/02 16:47:02;;;;;;;;;26.25;21.50;;;;;9.12;65.06;102096.88;6234293;22;45320;-71
2023/04/02 16:49:36;;;;;;;;;22.75;21.25;;;;;9.09;65.58;102104.63;6276973;22;45221;-70
2023/04/02 16:52:08;;;;;;;;;27.50;22.75;;;;;9.05;65.82;102100.94;6275764;22;45293;-69
2023/04/02 16:55:09;;;;;;;;;29.25;24.25;;;;;9.03;65.24;102096.41;6276276;22;45311;-70
2023/04/02 16:57:49;;;;;;;;;27.25;22.75;;;;;9.08;65.71;102105.47;6276909;22;45138;-71
2023/04/02 17:00:23;;;;;;;;;23.50;19.50;;;;;9.10;64.97;102109.06;6275296;22;45569;-70
2023/04/02 17:03:11;;;;;;;;;24.50;22.75;;;;;9.02;65.72;102118.31;6276871;22;46048;-70
2023/04/02 17:05:56;;;;;;;;;26.75;23.75;;;;;9.02;65.32;102118.31;6277330;22;45306;-70
2023/04/02 17:08:25;;;;;;;;;29.50;24.00;;;;;9.03;65.53;102128.06;6241929;22;45253;-70
2023/04/02 17:11:00;;;;;;;;;26.50;24.75;;;;;9.01;66.40;102132.34;6242489;22;45261;-70
2023/04/02 17:13:41;;;;;;;;;26.75;25.00;;;;;9.00;65.20;102136.72;6242234;22;45440;-70
2023/04/02 17:16:20;;;;;;;;;24.75;23.25;;;;;8.96;66.78;102145.25;6242523;22;45171;-70
2023/04/02 17:18:48;;;;;;;;;26.00;23.50;;;;;8.96;66.14;102142.63;6243265;22;45303;-69
2023/04/02 17:21:18;;;;;;;;;25.50;18.25;;;;;8.93;65.95;102139.84;6242306;22;45450;-70
2023/04/02 17:23:52;;;;;;;;;20.50;16.75;;;;;8.91;66.46;102147.69;6242350;22;46590;-71
2023/04/02 17:26:20;;;;;;;;;21.75;19.75;;;;;8.90;65.57;102150.22;6243432;22;45296;-70
2023/04/02 17:28:47;;;;;;;;;26.50;25.00;;;;;8.85;66.80;102143.78;6242905;22;45281;-69
2023/04/02 17:31:19;;;;;;;;;44.50;37.50;;;;;8.83;65.75;102148.09;6243083;22;45300;-70
2023/04/02 17:33:44;;;;;;;;;50.00;36.25;;;;;8.83;66.36;102156.91;6243157;22;45472;-70
2023/04/02 17:36:22;;;;;;;;;35.25;33.25;;;;;8.83;66.12;102156.91;6243743;22;45241;-69
2023/04/02 17:39:02;;;;;;;;;49.00;39.25;;;;;8.70;66.85;102147.44;6252740;22;45308;-69
2023/04/02 17:41:38;;;;;;;;;29.50;25.50;;;;;8.80;66.61;102172.56;6278192;22;45312;-72
2023/04/02 17:44:21;;;;;;;;;35.75;32.50;;;;;8.78;66.53;102166.31;6277351;22;46105;-71
2023/04/02 17:47:26;;;;;;;;;34.25;30.00;;;;;8.75;67.62;102179.31;6278109;22;45267;-71
2023/04/02 17:50:13;;;;;;;;;26.25;22.25;;;;;8.73;66.31;102184.50;6278220;22;45165;-71
2023/04/02 17:52:50;;;;;;;;;31.00;24.25;;;;;8.68;66.31;102177.16;6277475;22;45468;-72
2023/04/02 17:55:27;;;;;;;;;30.00;25.00;;;;;8.70;66.62;102181.69;6276066;22;46789;-72
2023/04/02 17:58:34;;;;;;;;;32.25;26.50;;;;;8.61;66.85;102164.50;6277672;22;45413;-72
2023/04/02 18:01:13;;;;;;;;;32.50;30.75;;;;;8.48;66.85;102153.28;6246079;22;45267;-71
2023/04/02 18:03:39;;;;;;;;;37.25;32.00;;;;;8.64;67.27;102184.00;6277718;22;45179;-72
2023/04/02 18:06:23;;;;;;;;;35.75;30.25;;;;;8.61;66.79;102194.41;6278000;22;45304;-71
2023/04/02 18:09:22;;;;;;;;;31.25;28.00;;;;;8.60;67.21;102192.59;6277608;22;45469;-72
2023/04/02 18:12:18;;;;;;;;;33.00;30.50;;;;;8.60;67.04;102191.66;6278073;22;45261;-72
2023/04/02 18:15:11;;;;;;;;;40.25;31.25;;;;;8.59;67.89;102192.50;6274970;22;45914;-72
2023/04/02 18:17:50;;;;;;;;;33.25;26.75;;;;;8.56;67.52;102209.03;6277591;22;46006;-71
2023/04/02 18:20:26;;;;;;;;;29.00;26.25;;;;;8.48;67.37;102203.34;6278138;22;45410;-70
2023/04/02 18:23:14;;;;;;;;;33.25;24.25;;;;;8.50;67.24;102216.63;6277123;22;45338;-72
2023/04/02 18:26:20;;;;;;;;;32.50;30.00;;;;;8.43;67.31;102198.63;6278224;22;45437;-72
2023/04/02 18:29:13;;;;;;;;;34.75;30.25;;;;;8.43;67.35;102223.28;6275305;22;45878;-72
2023/04/02 18:31:57;;;;;;;;;32.25;24.50;;;;;8.41;67.43;102226.66;6277948;22;45180;-72
2023/04/02 18:34:33;;;;;;;;;25.75;22.25;;;;;8.39;67.48;102223.91;6278113;22;45263;-72
2023/04/02 18:37:18;;;;;;;;;36.00;30.50;;;;;8.37;68.08;102232.53;6277292;22;45231;-72
2023/04/02 18:39:43;;;;;;;;;38.50;31.50;;;;;8.33;68.64;102231.44;6278215;22;45560;-73
2023/04/02 18:42:28;;;;;;;;;35.50;32.75;;;;;8.29;68.50;102237.38;6275072;22;45222;-72
2023/04/02 18:45:02;;;;;;;;;32.00;31.50;;;;;8.27;68.50;102239.00;6276238;22;45245;-72
2023/04/02 18:47:52;;;;;;;;;31.25;27.75;;;;;8.25;68.17;102238.91;6277796;22;45176;-72
2023/04/02 18:50:26;;;;;;;;;31.25;26.00;;;;;8.20;68.44;102247.38;6277699;22;45274;-71
2023/04/02 18:52:52;;;;;;;;;33.75;30.75;;;;;8.21;68.80;102254.47;6277064;22;45319;-72
2023/04/02 18:55:21;;;;;;;;;28.75;24.00;;;;;8.15;69.22;102247.13;6278264;22;45593;-72
2023/04/02 18:57:51;;;;;;;;;36.00;29.50;;;;;8.18;68.94;102251.66;6277161;22;45244;-72
2023/04/02 19:00:29;;;;;;;;;35.75;34.00;;;;;8.16;69.21;102253.31;6277325;22;46427;-71
2023/04/02 19:03:26;;;;;;;;;43.00;35.50;;;;;8.14;69.26;102252.28;6277334;22;45247;-71
2023/04/02 19:06:18;;;;;;;;;40.25;35.50;;;;;8.14;69.26;102262.81;6278030;22;45212;-71
2023/04/02 19:09:02;;;;;;;;;26.75;23.50;;;;;8.11;69.04;102250.38;6276131;22;45302;-71
2023/04/02 19:11:29;;;;;;;;;46.25;35.75;;;;;8.12;68.97;102259.19;6277297;22;46049;-71
2023/04/02 19:14:11;;;;;;;;;40.00;34.75;;;;;8.08;69.08;102266.00;6276661;22;45221;-71
2023/04/02 19:16:58;;;;;;;;;52.75;40.00;;;;;8.08;69.09;102266.91;6277905;22;45332;-71
2023/04/02 19:19:26;;;;;;;;;39.25;33.00;;;;;8.08;68.97;102274.81;6276662;22;45445;-71
2023/04/02 19:21:57;;;;;;;;;44.25;37.50;;;;;8.07;68.59;102275.66;6277084;22;45355;-71
2023/04/02 19:24:43;;;;;;;;;40.50;36.50;;;;;8.06;68.72;102279.06;6274522;22;45351;-71
2023/04/02 19:27:21;;;;;;;;;28.50;28.00;;;;;8.05;67.80;102284.28;6277526;22;45213;-71
2023/04/02 19:30:08;;;;;;;;;39.75;33.25;;;;;8.00;67.72;102286.63;6277596;22;45236;-71
2023/04/02 19:32:48;;;;;;;;;32.00;27.00;;;;;7.99;67.40;102294.47;6277156;22;45298;-71
2023/04/02 19:35:34;;;;;;;;;35.25;33.00;;;;;7.84;67.46;102274.31;6277004;22;45263;-72
2023/04/02 19:38:20;;;;;;;;;35.00;31.25;;;;;7.89;67.27;102295.63;6276913;22;45282;-72
2023/04/02 19:41:01;;;;;;;;;27.25;22.00;;;;;7.90;66.91;102284.28;6277304;22;45260;-72
2023/04/02 19:43:27;;;;;;;;;37.50;33.75;;;;;7.91;66.34;102296.63;6277079;22;45398;-72
2023/04/02 19:45:54;;;;;;;;;32.00;26.75;;;;;7.88;66.88;102288.56;6277649;22;45258;-72
2023/04/02 19:48:23;;;;;;;;;32.00;29.75;;;;;7.91;66.44;102301.00;6277421;22;45277;-72
2023/04/02 19:50:48;;;;;;;;;32.00;28.50;;;;;7.94;65.97;102312.59;6275057;22;45787;-72
2023/04/02 19:53:14;;;;;;;;;34.25;28.25;;;;;7.97;66.36;102319.78;6276574;22;45260;-72
2023/04/02 19:55:41;;;;;;;;;34.25;26.75;;;;;7.95;66.78;102316.13;6276897;22;45239;-72
2023/04/02 19:58:15;;;;;;;;;38.00;28.75;;;;;7.98;66.15;102317.25;6277150;22;45247;-72
2023/04/02 20:00:40;;;;;;;;;33.00;29.50;;;;;7.76;66.52;102285.19;6277070;22;45149;-70
2023/04/02 20:03:05;;;;;;;;;32.50;28.00;;;;;7.91;65.93;102317.69;6276815;22;46414;-71
2023/04/02 20:05:31;;;;;;;;;29.25;25.75;;;;;7.85;65.90;102312.97;6277216;22;48290;-71
2023/04/02 20:07:56;;;;;;;;;38.50;27.50;;;;;7.88;66.47;102308.72;6276617;22;45185;-70
2023/04/02 20:10:21;;;;;;;;;31.25;27.75;;;;;7.76;65.77;102285.19;6277669;22;45441;-70
2023/04/02 20:12:47;;;;;;;;;35.75;29.75;;;;;7.91;66.18;102309.78;6276993;22;45910;-71
2023/04/02 20:15:12;;;;;;;;;33.50;27.75;;;;;7.87;65.80;102302.53;6277462;22;45270;-71
2023/04/02 20:17:37;;;;;;;;;34.25;30.75;;;;;7.82;65.99;102314.53;6277307;22;45200;-71
2023/04/02 20:20:03;;;;;;;;;29.00;26.00;;;;;7.81;66.35;102320.56;6300857;22;45560;-70
2023/04/02 20:22:28;;;;;;;;;34.25;29.50;;;;;7.73;66.04;102308.69;6276579;22;45451;-71
2023/04/02 20:24:54;;;;;;;;;42.50;34.25;;;;;7.81;66.17;102334.69;6276648;22;52404;-71
2023/04/02 20:27:19;;;;;;;;;36.25;31.75;;;;;7.80;66.25;102331.94;6276772;22;45236;-71
2023/04/02 20:29:45;;;;;;;;;33.00;28.50;;;;;7.65;65.99;102312.59;6276401;22;45314;-71
2023/04/02 20:32:11;;;;;;;;;39.25;35.50;;;;;7.71;65.73;102334.03;6276729;22;45241;-72
2023/04/02 20:34:37;;;;;;;;;37.75;31.25;;;;;7.71;66.01;102324.41;6277172;22;45187;-71
2023/04/02 20:37:02;;;;;;;;;38.75;35.00;;;;;7.72;66.22;102330.56;6276804;22;45216;-72
2023/04/02 20:39:29;;;;;;;;;38.75;33.50;;;;;7.69;65.69;102327.75;6277177;22;45354;-71
2023/04/02 20:41:59;;;;;;;;;35.50;32.25;;;;;7.80;66.01;102347.72;6275207;22;46369;-71
2023/04/02 20:44:27;;;;;;;;;39.50;33.25;;;;;7.77;66.44;102340.56;6277382;22;45363;-72
2023/04/02 20:46:52;;;;;;;;;37.00;33.50;;;;;7.71;65.91;102334.94;6277225;22;45176;-71
2023/04/02 20:49:17;;;;;;;;;40.25;35.50;;;;;7.75;66.60;102346.53;6276954;22;45011;-71
2023/04/02 20:51:43;;;;;;;;;36.00;30.25;;;;;7.71;66.88;102342.81;6277246;22;45208;-71
2023/04/02 20:54:08;;;;;;;;;36.50;30.00;;;;;7.75;66.61;102342.19;6276477;22;45217;-71
2023/04/02 20:56:33;;;;;;;;;42.00;35.00;;;;;7.72;66.49;102343.72;6277519;22;45266;-70
2023/04/02 20:58:59;;;;;;;;;32.50;30.50;;;;;7.76;67.23;102351.91;6276806;22;45165;-71
2023/04/02 21:01:27;;;;;;;;;44.75;35.25;;;;;7.76;66.87;102365.06;6276745;22;46564;-72
2023/04/02 21:03:58;;;;;;;;;38.00;34.25;;;;;7.76;66.72;102365.06;6276888;22;45642;-70
2023/04/02 21:06:26;;;;;;;;;37.75;36.50;;;;;7.75;66.84;102357.97;6277288;22;45197;-72
2023/04/02 21:08:52;;;;;;;;;45.00;36.25;;;;;7.73;66.88;102361.31;6276328;22;45361;-72
2023/04/02 21:11:18;;;;;;;;;47.75;34.25;;;;;7.67;66.92;102355.69;6276290;22;46598;-72
2023/04/02 21:13:44;;;;;;;;;44.00;35.25;;;;;7.73;66.99;102364.88;6276648;22;45280;-71
2023/04/02 21:16:21;;;;;;;;;40.50;34.75;;;;;7.70;67.32;102371.66;6277152;22;45307;-68
2023/04/02 21:18:48;;;;;;;;;41.25;34.50;;;;;7.69;67.51;102370.75;6276837;22;45263;-71
2023/04/02 21:21:14;;;;;;;;;37.00;32.75;;;;;7.69;67.40;102370.75;6274723;22;47300;-72
2023/04/02 21:23:41;;;;;;;;;53.75;38.50;;;;;7.74;67.80;102371.06;6276153;22;45232;-71
2023/04/02 21:26:07;;;;;;;;;35.75;34.50;;;;;7.71;68.41;102368.25;6277249;22;45219;-72
2023/04/02 21:28:33;;;;;;;;;45.25;37.75;;;;;7.73;68.01;102375.41;6276812;22;45407;-72
2023/04/02 21:31:12;;;;;;;;;39.75;36.25;;;;;7.67;68.04;102358.31;6276755;22;45374;-72
2023/04/02 21:33:45;;;;;;;;;39.00;35.00;;;;;7.74;68.12;102371.97;6276433;22;45141;-72
2023/04/02 21:36:24;;;;;;;;;39.50;34.75;;;;;7.52;68.95;102367.09;6274880;22;45261;-72
2023/04/02 21:38:55;;;;;;;;;40.50;34.75;;;;;7.69;67.89;102367.22;6275771;22;45657;-72
2023/04/02 21:41:35;;;;;;;;;39.25;35.25;;;;;7.65;68.36;102376.66;6277034;22;45240;-72
2023/04/02 21:44:03;;;;;;;;;40.00;34.50;;;;;7.66;68.52;102377.56;6275831;22;45207;-72
2023/04/02 21:46:32;;;;;;;;;46.75;34.75;;;;;7.65;68.31;102374.03;6276848;22;45347;-72
2023/04/02 21:48:58;;;;;;;;;41.00;33.25;;;;;7.49;68.75;102342.31;6276339;22;45312;-72
2023/04/02 21:51:27;;;;;;;;;39.75;34.75;;;;;7.66;68.51;102377.56;6276725;22;45193;-72
2023/04/02 21:53:53;;;;;;;;;34.00;30.25;;;;;7.68;68.14;102371.59;6275699;22;45366;-72
2023/04/02 21:56:26;;;;;;;;;49.00;38.00;;;;;7.68;68.81;102386.47;6276978;22;45355;-72
2023/04/02 21:58:52;;;;;;;;;44.00;32.25;;;;;7.68;68.08;102379.47;6276431;22;45126;-72
2023/04/02 22:01:20;;;;;;;;;40.50;32.00;;;;;7.70;68.05;102384.81;6274716;22;45327;-72
2023/04/02 22:03:46;;;;;;;;;42.25;35.50;;;;;7.68;68.26;102384.75;6276358;22;45315;-72
2023/04/02 22:06:15;;;;;;;;;48.75;38.25;;;;;7.72;67.85;102393.72;6276582;22;45226;-72
2023/04/02 22:08:42;;;;;;;;;42.00;33.75;;;;;7.69;68.25;102373.41;6275995;22;45145;-72
2023/04/02 22:11:09;;;;;;;;;37.25;34.25;;;;;7.73;67.75;102378.06;6276069;22;45275;-72
2023/04/02 22:13:35;;;;;;;;;44.00;35.25;;;;;7.68;67.67;102384.75;6276398;22;45371;-72
2023/04/02 22:16:03;;;;;;;;;36.25;30.25;;;;;7.60;67.52;102371.09;6276749;22;45270;-72
2023/04/02 22:18:29;;;;;;;;;48.75;35.25;;;;;7.65;67.51;102379.31;6275433;22;45752;-72
2023/04/02 22:20:55;;;;;;;;;37.00;30.00;;;;;7.67;67.55;102384.63;6276215;22;45251;-72
2023/04/02 22:23:23;;;;;;;;;40.00;32.25;;;;;7.69;67.13;102383.03;6276408;22;45302;-72
2023/04/02 22:25:49;;;;;;;;;34.50;26.00;;;;;7.58;67.29;102366.56;6278374;22;45298;-72
2023/04/02 22:28:14;;;;;;;;;33.00;30.50;;;;;7.60;67.53;102371.09;6277554;22;45283;-72
2023/04/02 22:30:40;;;;;;;;;37.75;30.50;;;;;7.67;67.53;102371.47;6277366;22;47217;-72
2023/04/02 22:33:05;;;;;;;;;34.50;29.25;;;;;7.63;67.83;102368.66;6277656;22;45255;-72
2023/04/02 22:35:31;;;;;;;;;38.00;33.25;;;;;7.69;67.18;102383.91;6277868;22;45274;-72
2023/04/02 22:37:56;;;;;;;;;31.00;28.25;;;;;7.69;67.58;102377.75;6274745;22;45682;-72
2023/04/02 22:40:21;;;;;;;;;35.75;31.50;;;;;7.63;66.89;102365.13;6277378;22;45448;-72
2023/04/02 22:42:47;;;;;;;;;36.50;32.50;;;;;7.69;67.11;102373.41;6277541;22;45211;-72
2023/04/02 22:45:12;;;;;;;;;25.75;24.50;;;;;7.61;67.10;102369.38;6278074;22;45421;-72
2023/04/02 22:47:37;;;;;;;;;37.75;34.25;;;;;7.63;67.09;102373.94;6277571;22;45208;-72
2023/04/02 22:50:03;;;;;;;;;29.00;27.25;;;;;7.66;66.93;102383.75;6277723;22;46112;-72
2023/04/02 22:52:28;;;;;;;;;37.50;32.75;;;;;7.62;66.81;102377.38;6277093;22;45346;-72
2023/04/02 22:54:54;;;;;;;;;43.00;34.00;;;;;7.59;67.18;102366.66;6278012;22;45447;-72
2023/04/02 22:57:19;;;;;;;;;36.25;32.25;;;;;7.51;66.75;102352.13;6276925;22;45558;-72
2023/04/02 22:59:44;;;;;;;;;31.50;28.75;;;;;7.58;67.59;102377.09;6277900;22;45180;-72
2023/04/02 23:02:10;;;;;;;;;35.50;33.50;;;;;7.63;67.07;102383.56;6277530;22;45065;-71
2023/04/02 23:04:35;;;;;;;;;34.00;30.50;;;;;7.62;67.53;102380.00;6278082;22;45227;-72
2023/04/02 23:07:01;;;;;;;;;36.50;29.75;;;;;7.64;67.28;102374.81;6277183;22;45150;-72
2023/04/02 23:09:26;;;;;;;;;31.25;29.75;;;;;7.59;67.38;102363.13;6277290;22;45111;-72
2023/04/02 23:11:51;;;;;;;;;32.50;24.50;;;;;7.72;67.18;102377.94;6277600;22;45168;-72
2023/04/02 23:14:16;;;;;;;;;41.00;31.00;;;;;7.70;67.09;102369.97;6277481;22;45125;-72
2023/04/02 23:16:42;;;;;;;;;41.00;33.25;;;;;7.69;67.02;102373.41;6277817;22;45182;-72
2023/04/02 23:19:07;;;;;;;;;36.25;29.25;;;;;7.66;67.24;102383.75;6277328;22;46578;-72
2023/04/02 23:21:33;;;;;;;;;37.00;31.25;;;;;7.54;66.90;102357.59;6277979;22;45347;-72
2023/04/02 23:23:58;;;;;;;;;34.75;30.75;;;;;7.62;66.99;102374.75;6276531;22;45470;-72
2023/04/02 23:26:28;;;;;;;;;41.75;32.25;;;;;7.60;67.21;102371.09;6277730;22;45369;-72
2023/04/02 23:28:53;;;;;;;;;31.75;27.25;;;;;7.64;66.98;102374.81;6277374;22;45281;-72
2023/04/02 23:31:21;;;;;;;;;31.75;28.25;;;;;7.62;67.03;102374.75;6277670;22;45232;-72
2023/04/02 23:33:46;;;;;;;;;29.75;27.00;;;;;7.60;66.96;102379.00;6277092;22;45268;-72
2023/04/02 23:36:20;;;;;;;;;40.50;33.75;;;;;7.54;66.78;102354.06;6277556;22;45223;-72
2023/04/02 23:38:46;;;;;;;;;39.50;33.50;;;;;7.58;66.76;102367.47;6276304;22;45313;-72
2023/04/02 23:41:15;;;;;;;;;33.75;29.50;;;;;7.61;67.22;102374.63;6277758;22;45259;-72
2023/04/02 23:43:41;;;;;;;;;35.25;33.00;;;;;7.53;67.19;102362.72;6277237;22;45656;-72
2023/04/02 23:46:07;;;;;;;;;33.25;28.25;;;;;7.59;67.11;102368.41;6275289;22;46190;-72
2023/04/02 23:48:32;;;;;;;;;23.50;16.75;;;;;7.62;67.30;102377.38;6277257;22;45278;-72
2023/04/02 23:50:57;;;;;;;;;38.75;33.50;;;;;7.59;67.44;102374.56;6275505;22;45232;-72
2023/04/02 23:53:23;;;;;;;;;40.25;31.50;;;;;7.58;67.21;102378.00;6277184;22;45312;-72
2023/04/02 23:55:48;;;;;;;;;31.75;26.75;;;;;7.44;67.09;102352.56;6277939;22;45202;-72
2023/04/02 23:58:14;;;;;;;;;33.25;31.25;;;;;7.56;67.23;102373.44;6277212;22;45862;-72
